Terminal Aerodrome Forecast
Issued by NWS

Home | Current Version | Previous Version | Text Only | Print | Product List | Glossary On
Versions: 1 2 3 4 5 6 7 8 9 10 11 12 13 14 15 16 17 18 19 20 21 22 23 24 25 26 27 28 29 30 31 32 33 34 35 36 37 38 39 40
000
FTUS44 KFWD 031141
TAFDAL
TAF
KDAL 031141Z 0312/0412 VRB03KT 2SM -DZ BR OVC006
      TEMPO 0312/0314 3/4SM -DZ BR VV002
     FM031400 19010KT 3SM BR OVC007
     FM031900 19013KT P6SM OVC015
     FM040200 16009KT 5SM BR VCSH OVC008
     FM040600 36006KT 3SM -RA OVC006=

USA.gov is the U.S. government's official web portal to all federal, state and local government web resources and services.